This is the latest recevied weather packets stored in our database for station/object M0SDM. If no packets are shown the sender has not sent any weather packets the latest 10 day(s).
| Time | Temp. | Humidity | Pressure | Rain* | Wind** | Luminosity | Snow |
|---|---|---|---|---|---|---|---|
| 1777451121 | 12.22° C | 69% | 1027.5 hPa | 0 mm | - | - | - |
| 1777450221 | 11.67° C | 72% | 1027.4 hPa | 0 mm | - | - | - |
| 1777449321 | 12.22° C | 74% | 1027.6 hPa | 0 mm | - | - | - |
| 1777448421 | 11.11° C | 78% | 1027.9 hPa | 0 mm | - | - | - |
| 1777447521 | 11.11° C | 79% | 1027.8 hPa | 0 mm | - | - | - |
| 1777446621 | 10° C | 81% | 1027.9 hPa | 0 mm | - | - | - |
| 1777445721 | 9.44° C | 83% | 1027.6 hPa | 0 mm | - | - | - |
| 1777444821 | 8.33° C | 89% | 1027.8 hPa | 0 mm | - | - | - |
| 1777443921 | 7.22° C | 91% | 1027.5 hPa | 0 mm | - | - | - |
| 1777443021 | 6.67° C | 93% | 1027.3 hPa | 0 mm | - | - | - |
| 1777442121 | 6.11° C | 93% | 1027.6 hPa | 0 mm | - | - | - |
| 1777441221 | 5.56° C | 94% | 1027.4 hPa | 0 mm | - | - | - |
| 1777440321 | 5.56° C | 94% | 1027.4 hPa | 0 mm | - | - | - |
| 1777439421 | 4.44° C | 95% | 1027.5 hPa | 0 mm | - | - | - |
| 1777438521 | 4.44° C | 95% | 1027.3 hPa | 0 mm | - | - | - |
| 1777437621 | 4.44° C | 95% | 1027.4 hPa | 0 mm | - | - | - |
| 1777436721 | 3.89° C | 95% | 1027.3 hPa | 0 mm | - | - | - |
| 1777435821 | 3.89° C | 94% | 1027.5 hPa | 0 mm | - | - | - |
| 1777434921 | 4.44° C | 94% | 1027.5 hPa | 0 mm | - | - | - |
| 1777434021 | 4.44° C | 94% | 1027.5 hPa | 0 mm | - | - | - |
| 1777433121 | 4.44° C | 94% | 1027.6 hPa | 0 mm | - | - | - |
| 1777432221 | 4.44° C | 94% | 1027.6 hPa | 0 mm | - | - | - |
| 1777431321 | 4.44° C | 94% | 1027.4 hPa | 0 mm | - | - | - |
| 1777430421 | 4.44° C | 94% | 1027.4 hPa | 0 mm | - | - | - |
| 1777429521 | 4.44° C | 93% | 1027.4 hPa | 0 mm | - | - | - |
* Rain latest hour (hover to see other rain measurements)
** Current wind speed in m/s (hover to see current wind gust speed)